Aérodrome :
LOGIN :

S'inscrire | Disclaimer

   EN    FR    IT 

 










Légende :    VFR   VFR Marginal   IFR   IFR Intensif   IFR Très Intensif
Visi : 
Plafond : 
>= 8 km
>= 3000ft
5 à 8 km
1000 à 3000 ft
1500m à 5 km
500 à 1000 ft
800 à 1500m
200 à 500 ft
< 800m
< 200 ft
Symboles :   Orages  Brouillard  Fortes neiges  Fortes précipitations  Vent > 20 kt
SIGMETs :   Divers  Orages  Givrage  Turbulence  Onde Orograph.  Cendres Volcan.







- Altitude de l'aérodrome : 309 ft
- Code IATA : FNI
- Voir les cartes d'approche


LFTW - Nîmes Garons

DERNIER METAR :
  • 250430Z AUTO VRB03KT 4200 BR OVC004 14/13 Q1017 NOSIG

METARs EXPIRÉS :
  • 250400Z AUTO VRB02KT 4700 BR OVC003 14/14 Q1017 NOSIG
  • 250330Z AUTO 01002KT 3800 BR OVC005 13/12 Q1017 NOSIG
  • 250300Z AUTO VRB01KT 2800 BR OVC004 13/12 Q1017 TEMPO SCT002 BECMG 3000 BR
  • 250230Z AUTO 06002KT 2000 0900 R18/P2000 BCFG SCT004 13/11 Q1016 TEMPO BKN002 BECMG 3000 BR
  • 250200Z AUTO VRB02KT 3600 BR NSC 14/13 Q1016

TAF TAF LFTW
Valide du 25 à 03h jusqu'au 26 à 03h UTC


250200Z 2503/2603 VRB04KT 3000 BR SCT002
TEMPO 2504/2507 BKN002
BECMG 2508/2510 20008KT CAVOK
BECMG 2516/2518 30012KT
Pas de NOTAMs connus pour ce terrain.



MET'MAP, la Météo Aéronautique d'un coup d'oeil ! - Copyright ORBIFLY Décembre 2007 - Disclaimer

ORBIFLY MET'MAP TEAM :

Programmation & Développement : Alexandra Zaïnal
Conception & Développement : Baudouin d'Aumeries
Co-Programmation & Développement : Marc-Olivier Méhu
Soutien technique & logistique : Manuel Goepfert

Contact : metmap@orbifly.com




SOURCES & CREDITS :

   NOAA